KTEB/TEB METAR and TAF weather

Enter ICAO airport designator
Station Type Date Time Source
KTEB METAR 2020/09/21 05:51 UTC NOAA

KTEB 210551Z 36003KT 10SM CLR 08/03 A3054 RMK AO2 SLP342 T00830033 10144 20083 53002 $


Station Type Date Time Source
KTEB Decoded METAR 2020/09/21 05:51 UTC NOAA

TETERBORO AIRPORT, NJ, United States (KTEB) 40-52N 74-03W 7M
Sep 21, 2020 - 01:51 AM EDT / 2020.09.21 0551 UTC
Wind: from the N (360 degrees) at 3 MPH (3 KT):0
Visibility: 10 mile(s):0
Sky conditions: clear
Temperature: 46.9 F (8.3 C)
Dew Point: 37.9 F (3.3 C)
Relative Humidity: 70%
Pressure (altimeter): 30.54 in. Hg (1034 hPa)
Pressure tendency: 0.01 inches (0.2 hPa) higher than three hours ago
ob: KTEB 210551Z 36003KT 10SM CLR 08/03 A3054 RMK AO2 SLP342 T00830033 10144 20083 53002
cycle: 6

Station Type Date Time Source
KTEB TAF 2020/09/21 06:24 UTC NOAA

TAF KTEB 210523Z 2106/2212 01005KT P6SM SKC
FM211500 05009G16KT P6SM SKC
FM212000 06008KT P6SM SKC
FM220300 01004KT P6SM FEW250
FM221000 35004KT P6SM SKC

Example: see airport list